createdAt,value
2023-05-07T00:00:48.275Z,2.10
2023-05-07T00:03:16.388Z,1.60
2023-05-07T00:05:44.400Z,1.77
2023-05-07T00:08:13.605Z,1.77
2023-05-07T00:10:41.504Z,1.80
2023-05-07T00:13:11.819Z,1.80
2023-05-07T00:15:39.772Z,2.00
2023-05-07T00:18:07.806Z,1.87
2023-05-07T00:20:36.330Z,1.70
2023-05-07T00:23:04.367Z,1.90
2023-05-07T00:25:32.352Z,1.70
2023-05-07T00:28:04.569Z,1.83
2023-05-07T00:30:34.059Z,2.00
2023-05-07T00:33:02.243Z,1.73
2023-05-07T00:35:31.111Z,1.77
2023-05-07T00:38:00.164Z,2.13
2023-05-07T00:40:28.092Z,1.87
2023-05-07T00:42:59.226Z,1.70
2023-05-07T00:45:29.491Z,1.80
2023-05-07T00:48:01.612Z,1.93
2023-05-07T00:50:30.455Z,2.00
2023-05-07T00:52:59.081Z,2.00
2023-05-07T00:55:27.140Z,2.00
2023-05-07T00:57:55.350Z,1.93
2023-05-07T01:00:23.262Z,1.90
2023-05-07T01:02:51.240Z,1.83
2023-05-07T01:05:25.174Z,2.00
2023-05-07T01:07:55.626Z,1.73
2023-05-07T01:10:24.897Z,1.80
2023-05-07T01:12:53.794Z,2.00
2023-05-07T01:15:21.939Z,2.20
2023-05-07T01:17:51.027Z,1.80
2023-05-07T01:20:20.872Z,1.90
2023-05-07T01:22:50.915Z,1.87
2023-05-07T01:25:19.278Z,2.10
2023-05-07T01:27:47.492Z,1.50
2023-05-07T01:30:15.691Z,1.80
2023-05-07T01:32:49.856Z,2.00
2023-05-07T01:35:21.386Z,1.80
2023-05-07T01:37:51.667Z,1.93
2023-05-07T01:40:20.229Z,1.80
2023-05-07T01:42:49.174Z,1.67
2023-05-07T01:45:17.077Z,1.80
2023-05-07T01:47:45.885Z,1.80
2023-05-07T01:50:14.736Z,2.07
2023-05-07T01:52:43.122Z,1.60
2023-05-07T01:55:12.639Z,2.07
2023-05-07T01:57:40.976Z,1.70
2023-05-07T02:00:10.869Z,1.77
2023-05-07T02:02:39.986Z,1.93
2023-05-07T02:05:08.717Z,1.70
2023-05-07T02:07:36.789Z,1.57
2023-05-07T02:10:05.091Z,1.70
2023-05-07T02:12:34.401Z,1.40
2023-05-07T02:15:02.664Z,1.50
2023-05-07T02:17:32.689Z,1.53
2023-05-07T02:20:00.889Z,1.70
2023-05-07T02:22:28.799Z,1.90
2023-05-07T02:24:56.781Z,1.70
2023-05-07T02:27:24.677Z,2.00
2023-05-07T02:29:53.960Z,1.80
2023-05-07T02:32:21.837Z,1.70
2023-05-07T02:34:52.560Z,1.80
2023-05-07T02:37:20.486Z,1.80
2023-05-07T02:39:48.370Z,1.70
2023-05-07T02:42:17.598Z,2.10
2023-05-07T02:44:45.553Z,1.70
2023-05-07T02:47:17.208Z,1.90
2023-05-07T02:49:45.035Z,1.80
2023-05-07T02:52:12.871Z,1.73
2023-05-07T02:54:40.710Z,1.73
2023-05-07T02:57:08.644Z,1.73
2023-05-07T02:59:36.617Z,1.70
2023-05-07T03:02:04.534Z,1.80
2023-05-07T03:04:33.798Z,1.73
2023-05-07T03:07:01.662Z,1.57
2023-05-07T03:09:29.540Z,1.60
2023-05-07T03:11:58.212Z,1.60
2023-05-07T03:14:26.223Z,1.90
2023-05-07T03:16:54.137Z,1.40
2023-05-07T03:19:22.007Z,1.50
2023-05-07T03:21:51.238Z,1.53
2023-05-07T03:24:19.135Z,1.83
2023-05-07T03:26:47.087Z,1.53
2023-05-07T03:29:14.950Z,1.70
2023-05-07T03:31:42.963Z,1.80
2023-05-07T03:34:10.942Z,1.63
2023-05-07T03:36:38.855Z,1.67
2023-05-07T03:39:08.100Z,1.63
2023-05-07T03:41:36.524Z,1.33
2023-05-07T03:44:04.507Z,1.83
2023-05-07T03:46:33.829Z,1.50
2023-05-07T03:49:01.797Z,1.63
2023-05-07T03:51:29.654Z,1.77
2023-05-07T03:53:58.151Z,1.60
2023-05-07T03:56:28.789Z,1.53
2023-05-07T03:58:56.721Z,1.70
2023-05-07T04:01:24.626Z,1.77
2023-05-07T04:03:52.724Z,1.67
2023-05-07T04:06:20.677Z,1.60
2023-05-07T04:08:48.694Z,1.60
2023-05-07T04:11:16.612Z,1.57
2023-05-07T04:13:45.988Z,1.70
2023-05-07T04:16:13.961Z,1.30
2023-05-07T04:18:41.989Z,1.90
2023-05-07T04:21:16.763Z,1.47
2023-05-07T04:23:44.828Z,1.43
2023-05-07T04:26:12.755Z,1.53
2023-05-07T04:28:41.256Z,1.43
2023-05-07T04:31:10.668Z,1.70
2023-05-07T04:33:38.598Z,1.40
2023-05-07T04:36:06.877Z,1.50
2023-05-07T04:38:34.835Z,1.60
2023-05-07T04:41:06.087Z,1.70
2023-05-07T04:43:34.305Z,1.47
2023-05-07T04:46:02.364Z,1.60
2023-05-07T04:48:31.655Z,1.57
2023-05-07T04:50:59.625Z,1.70
2023-05-07T04:53:27.508Z,2.17
2023-05-07T04:55:58.558Z,1.57
2023-05-07T04:58:26.623Z,1.63
2023-05-07T05:00:54.460Z,1.60
2023-05-07T05:03:22.423Z,1.70
2023-05-07T05:05:53.749Z,1.60
2023-05-07T05:08:21.751Z,1.70
2023-05-07T05:10:50.998Z,1.50
2023-05-07T05:13:19.234Z,1.40
2023-05-07T05:15:47.576Z,1.40
2023-05-07T05:18:15.503Z,1.80
2023-05-07T05:20:43.401Z,1.50
2023-05-07T05:23:13.076Z,1.80
2023-05-07T05:25:41.332Z,1.60
2023-05-07T05:28:09.351Z,1.90
2023-05-07T05:30:37.420Z,1.57
2023-05-07T05:33:05.477Z,1.70
2023-05-07T05:35:33.630Z,1.37
2023-05-07T05:38:01.631Z,1.90
2023-05-07T05:40:31.080Z,1.93
2023-05-07T05:42:59.136Z,2.07
2023-05-07T05:45:27.456Z,1.60
2023-05-07T05:47:55.434Z,1.63
2023-05-07T05:50:23.477Z,1.67
2023-05-07T05:52:51.870Z,1.53
2023-05-07T05:55:19.720Z,1.50
2023-05-07T05:57:49.256Z,1.60
2023-05-07T06:00:18.705Z,1.97
2023-05-07T06:02:46.945Z,1.37
2023-05-07T06:05:15.060Z,1.73
2023-05-07T06:07:42.997Z,1.70
2023-05-07T06:10:11.451Z,1.83
2023-05-07T06:12:39.866Z,1.50
2023-05-07T06:15:10.064Z,1.50
2023-05-07T06:17:37.947Z,1.60
2023-05-07T06:20:06.904Z,1.80
2023-05-07T06:22:34.878Z,1.60
2023-05-07T06:25:02.979Z,1.70
2023-05-07T06:27:30.932Z,1.70
2023-05-07T06:29:58.813Z,1.67
2023-05-07T06:32:28.082Z,1.30
2023-05-07T06:34:56.605Z,1.47
2023-05-07T06:37:24.581Z,1.63
2023-05-07T06:39:52.427Z,1.50
2023-05-07T06:42:20.439Z,1.20
2023-05-07T06:44:48.403Z,1.53
2023-05-07T06:47:16.689Z,1.40
2023-05-07T06:49:45.996Z,1.60
2023-05-07T06:52:13.825Z,1.60
2023-05-07T06:54:41.644Z,1.33
2023-05-07T06:57:09.540Z,1.30
2023-05-07T06:59:37.498Z,1.10
2023-05-07T07:02:05.604Z,1.27
2023-05-07T07:04:33.674Z,1.10
2023-05-07T07:07:03.002Z,1.30
2023-05-07T07:09:31.057Z,1.43
2023-05-07T07:11:58.922Z,1.20
2023-05-07T07:14:26.837Z,1.20
2023-05-07T07:16:55.015Z,1.37
2023-05-07T07:19:22.949Z,1.50
2023-05-07T07:21:50.781Z,1.20
2023-05-07T07:24:22.447Z,1.10
2023-05-07T07:26:50.585Z,1.30
2023-05-07T07:29:19.621Z,1.27
2023-05-07T07:31:47.587Z,1.03
2023-05-07T07:34:15.588Z,1.07
2023-05-07T07:36:46.519Z,1.40
2023-05-07T07:39:15.232Z,1.30
2023-05-07T07:41:44.463Z,1.10
2023-05-07T07:44:15.924Z,1.20
2023-05-07T07:46:44.482Z,1.10
2023-05-07T07:49:12.409Z,1.30
2023-05-07T07:51:40.423Z,1.33
2023-05-07T07:54:08.402Z,1.13
2023-05-07T07:56:36.653Z,1.17
2023-05-07T07:59:05.952Z,1.20
2023-05-07T08:01:34.085Z,1.30
2023-05-07T08:04:04.230Z,1.47
2023-05-07T08:06:32.256Z,1.20
2023-05-07T08:09:00.111Z,1.30
2023-05-07T08:11:28.301Z,1.20
2023-05-07T08:13:56.500Z,0.97
2023-05-07T08:16:26.151Z,0.93
2023-05-07T08:18:54.161Z,1.23
2023-05-07T08:21:22.193Z,1.40
2023-05-07T08:23:50.250Z,1.37
2023-05-07T08:26:18.202Z,1.20
2023-05-07T08:28:46.240Z,1.30
2023-05-07T08:31:14.244Z,1.37
2023-05-07T08:33:43.573Z,1.30
2023-05-07T08:36:11.612Z,1.40
2023-05-07T08:38:41.652Z,1.30
2023-05-07T08:41:12.166Z,1.20
2023-05-07T08:43:42.917Z,1.20
2023-05-07T08:46:12.471Z,1.40
2023-05-07T08:48:40.549Z,1.13
2023-05-07T08:51:14.478Z,1.30
2023-05-07T08:53:43.360Z,1.33
2023-05-07T08:56:11.720Z,1.43
2023-05-07T08:58:39.890Z,1.37
2023-05-07T09:01:10.522Z,1.30
2023-05-07T09:03:40.017Z,1.20
2023-05-07T09:06:09.317Z,1.30
2023-05-07T09:08:37.721Z,1.30
2023-05-07T09:11:06.041Z,1.30
2023-05-07T09:13:34.012Z,1.03
2023-05-07T09:16:13.078Z,1.30
2023-05-07T09:18:44.411Z,1.13
2023-05-07T09:21:16.738Z,1.07
2023-05-07T09:23:44.902Z,1.20
2023-05-07T09:26:13.586Z,1.43
2023-05-07T09:28:42.865Z,1.27
2023-05-07T09:31:11.946Z,1.30
2023-05-07T09:33:40.344Z,1.30
2023-05-07T09:36:10.094Z,1.40
2023-05-07T09:38:39.899Z,1.10
2023-05-07T09:41:09.576Z,1.27
2023-05-07T09:43:38.360Z,1.33
2023-05-07T09:46:09.745Z,1.17
2023-05-07T09:48:40.942Z,1.33
2023-05-07T09:51:19.115Z,1.20
2023-05-07T09:53:50.408Z,1.23
2023-05-07T09:56:19.778Z,1.20
2023-05-07T09:58:48.706Z,1.27
2023-05-07T10:01:20.269Z,1.48
2023-05-07T10:03:48.731Z,1.10
2023-05-07T10:06:17.414Z,1.13
2023-05-07T10:08:46.319Z,1.15
2023-05-07T10:11:16.695Z,1.10
2023-05-07T10:13:45.402Z,1.00
2023-05-07T10:16:13.862Z,1.10
2023-05-07T10:18:43.212Z,1.20
2023-05-07T10:21:15.281Z,1.30
2023-05-07T10:23:46.795Z,1.30
2023-05-07T10:26:17.204Z,1.10
2023-05-07T10:28:49.019Z,1.13
2023-05-07T10:31:29.889Z,1.10
2023-05-07T10:34:00.214Z,1.30
2023-05-07T10:36:28.885Z,1.03
2023-05-07T10:38:57.307Z,0.90
2023-05-07T10:41:26.653Z,1.20
2023-05-07T10:43:54.543Z,1.30
2023-05-07T10:46:24.336Z,1.30
2023-05-07T10:49:12.424Z,1.20
2023-05-07T10:51:41.135Z,1.30
2023-05-07T10:54:22.206Z,1.20
2023-05-07T10:56:52.172Z,1.27
2023-05-07T10:59:34.992Z,1.00
2023-05-07T11:02:05.202Z,1.10
2023-05-07T11:04:35.925Z,1.23
2023-05-07T11:07:37.355Z,1.30
2023-05-07T11:10:06.861Z,1.00
2023-05-07T11:12:55.748Z,1.03
2023-05-07T11:15:46.355Z,1.10
2023-05-07T11:18:15.552Z,0.93
2023-05-07T11:20:52.176Z,1.00
2023-05-07T11:24:09.012Z,0.90
2023-05-07T11:26:48.266Z,1.00
2023-05-07T11:29:21.837Z,0.90
2023-05-07T11:31:52.534Z,1.20
2023-05-07T11:34:24.616Z,1.20
2023-05-07T11:36:53.178Z,1.30
2023-05-07T11:39:31.507Z,1.83
2023-05-07T11:41:59.599Z,1.20
2023-05-07T11:44:43.191Z,1.03
2023-05-07T11:47:12.372Z,1.27
2023-05-07T11:49:41.582Z,1.00
2023-05-07T11:52:09.612Z,1.10
2023-05-07T11:54:39.818Z,1.30
2023-05-07T11:57:08.378Z,1.27
2023-05-07T11:59:42.344Z,1.20
2023-05-07T12:02:10.835Z,1.17
2023-05-07T12:04:40.471Z,0.90
2023-05-07T12:07:12.984Z,1.10
2023-05-07T12:09:41.004Z,1.00
2023-05-07T12:12:09.662Z,1.10
2023-05-07T12:14:42.099Z,1.20
2023-05-07T12:17:11.049Z,1.20
2023-05-07T12:19:40.531Z,1.17
2023-05-07T12:22:10.211Z,1.00
2023-05-07T12:24:46.458Z,1.20
2023-05-07T12:27:15.221Z,1.00
2023-05-07T12:29:48.457Z,1.00
2023-05-07T12:32:17.315Z,1.00
2023-05-07T12:34:45.978Z,1.00
2023-05-07T12:37:14.699Z,1.10
2023-05-07T12:39:46.958Z,1.00
2023-05-07T12:42:18.304Z,1.10
2023-05-07T12:44:49.041Z,1.00
2023-05-07T12:47:17.438Z,1.00
2023-05-07T12:49:46.823Z,0.80
2023-05-07T12:52:15.516Z,1.00
2023-05-07T12:54:43.573Z,0.90
2023-05-07T12:57:12.346Z,1.30
2023-05-07T12:59:41.948Z,1.30
2023-05-07T13:02:11.587Z,1.10
2023-05-07T13:04:39.563Z,0.83
2023-05-07T13:07:07.577Z,1.30
2023-05-07T13:09:35.816Z,1.13
2023-05-07T13:12:03.724Z,0.87
2023-05-07T13:14:31.603Z,1.20
2023-05-07T13:16:59.478Z,1.00
2023-05-07T13:19:29.751Z,1.20
2023-05-07T13:21:59.364Z,1.30
2023-05-07T13:24:27.323Z,1.50
2023-05-07T13:26:55.773Z,1.20
2023-05-07T13:29:29.572Z,1.10
2023-05-07T13:31:58.426Z,1.13
2023-05-07T13:34:27.717Z,1.23
2023-05-07T13:36:56.132Z,1.30
2023-05-07T13:39:24.116Z,1.30
2023-05-07T13:41:52.095Z,1.20
2023-05-07T13:44:20.101Z,1.00
2023-05-07T13:46:48.102Z,1.13
2023-05-07T13:49:16.129Z,1.20
2023-05-07T13:51:45.383Z,1.40
2023-05-07T13:54:13.307Z,1.30
2023-05-07T13:56:41.549Z,1.17
2023-05-07T13:59:09.470Z,1.33
2023-05-07T14:01:37.490Z,1.30
2023-05-07T14:04:05.876Z,1.50
2023-05-07T14:06:33.926Z,1.40
2023-05-07T14:09:03.198Z,1.30
2023-05-07T14:11:32.264Z,1.43
2023-05-07T14:14:01.281Z,1.30
2023-05-07T14:16:29.209Z,1.33
2023-05-07T14:18:58.825Z,1.40
2023-05-07T14:21:26.949Z,1.20
2023-05-07T14:23:54.861Z,1.20
2023-05-07T14:26:24.368Z,1.87
2023-05-07T14:28:52.292Z,1.70
2023-05-07T14:31:20.300Z,1.50
2023-05-07T14:33:48.231Z,1.37
2023-05-07T14:36:16.475Z,1.47
2023-05-07T14:38:44.496Z,1.20
2023-05-07T14:41:12.490Z,1.33
2023-05-07T14:43:41.768Z,1.20
2023-05-07T14:46:09.975Z,1.33
2023-05-07T14:48:37.840Z,1.53
2023-05-07T14:51:05.869Z,1.17
2023-05-07T14:53:33.876Z,1.27
2023-05-07T14:56:02.153Z,1.30
2023-05-07T14:58:30.105Z,1.33
2023-05-07T15:00:59.513Z,1.30
2023-05-07T15:03:27.525Z,1.13
2023-05-07T15:05:55.631Z,1.30
2023-05-07T15:08:23.599Z,1.57
2023-05-07T15:10:51.571Z,2.00
2023-05-07T15:13:19.523Z,1.53
2023-05-07T15:15:48.484Z,1.60
2023-05-07T15:18:17.896Z,1.60
2023-05-07T15:20:45.963Z,1.57
2023-05-07T15:23:14.990Z,1.80
2023-05-07T15:25:42.996Z,1.67
2023-05-07T15:28:10.917Z,1.70
2023-05-07T15:30:38.823Z,1.67
2023-05-07T15:33:06.794Z,1.67
2023-05-07T15:35:36.169Z,1.50
2023-05-07T15:38:05.013Z,1.30
2023-05-07T15:40:33.788Z,1.20
2023-05-07T15:43:01.883Z,1.30
2023-05-07T15:45:31.176Z,1.37
2023-05-07T15:47:59.260Z,1.17
2023-05-07T15:50:27.308Z,1.43
2023-05-07T15:52:56.513Z,1.77
2023-05-07T15:55:24.478Z,1.57
2023-05-07T15:57:55.029Z,1.57
2023-05-07T16:00:23.643Z,1.23
2023-05-07T16:02:51.986Z,1.50
2023-05-07T16:05:20.050Z,1.50
2023-05-07T16:07:48.547Z,1.23
2023-05-07T16:10:18.533Z,1.50
2023-05-07T16:12:46.527Z,1.30
2023-05-07T16:15:14.755Z,1.23
2023-05-07T16:17:42.799Z,1.10
2023-05-07T16:20:12.978Z,1.20
2023-05-07T16:22:40.910Z,1.30
2023-05-07T16:25:10.066Z,0.90
2023-05-07T16:27:39.471Z,1.23
2023-05-07T16:30:08.925Z,1.10
2023-05-07T16:32:37.191Z,1.27
2023-05-07T16:35:05.409Z,1.10
2023-05-07T16:37:34.214Z,1.23
2023-05-07T16:40:02.653Z,1.27
2023-05-07T16:42:30.570Z,1.23
2023-05-07T16:44:59.868Z,1.33
2023-05-07T16:47:27.903Z,0.97
2023-05-07T16:49:55.803Z,1.00
2023-05-07T16:52:23.918Z,1.30
2023-05-07T16:54:52.045Z,1.10
2023-05-07T16:57:19.892Z,1.20
2023-05-07T16:59:47.775Z,0.90
2023-05-07T17:02:17.002Z,1.10
2023-05-07T17:04:44.874Z,1.00
2023-05-07T17:07:13.106Z,1.30
2023-05-07T17:09:40.915Z,1.07
2023-05-07T17:12:08.934Z,1.10
2023-05-07T17:14:36.803Z,1.10
2023-05-07T17:17:04.757Z,1.03
2023-05-07T17:19:34.245Z,1.40
2023-05-07T17:22:02.109Z,1.10
2023-05-07T17:24:30.102Z,1.10
2023-05-07T17:26:58.074Z,1.30
2023-05-07T17:29:25.984Z,1.40
2023-05-07T17:31:53.894Z,1.40
2023-05-07T17:34:21.813Z,1.20
2023-05-07T17:36:51.142Z,1.30
2023-05-07T17:39:19.111Z,1.43
2023-05-07T17:41:47.301Z,1.60
2023-05-07T17:44:15.174Z,1.50
2023-05-07T17:46:43.117Z,1.97
2023-05-07T17:49:11.171Z,1.50
2023-05-07T17:51:50.339Z,1.90
2023-05-07T17:54:24.283Z,1.43
2023-05-07T17:56:52.504Z,1.50
2023-05-07T17:59:20.517Z,1.57
2023-05-07T18:01:48.531Z,1.70
2023-05-07T18:04:16.534Z,1.57
2023-05-07T18:06:44.510Z,1.50
2023-05-07T18:09:12.454Z,1.50
2023-05-07T18:11:41.813Z,1.77
2023-05-07T18:14:09.716Z,2.87
2023-05-07T18:16:37.796Z,1.77
2023-05-07T18:19:05.754Z,1.43
2023-05-07T18:21:33.714Z,1.60
2023-05-07T18:24:01.624Z,1.50
2023-05-07T18:26:29.460Z,1.43
2023-05-07T18:28:58.679Z,1.63
2023-05-07T18:31:26.629Z,1.63
2023-05-07T18:33:55.918Z,1.73
2023-05-07T18:36:24.972Z,1.83
2023-05-07T18:38:53.538Z,1.80
2023-05-07T18:41:21.588Z,1.80
2023-05-07T18:43:49.479Z,1.53
2023-05-07T18:46:18.905Z,1.70
2023-05-07T18:48:46.904Z,1.67
2023-05-07T18:51:14.843Z,1.50
2023-05-07T18:53:42.838Z,1.80
2023-05-07T18:56:10.815Z,1.87
2023-05-07T18:58:38.930Z,1.90
2023-05-07T19:01:08.666Z,1.73
2023-05-07T19:03:38.278Z,1.63
2023-05-07T19:06:06.619Z,2.03
2023-05-07T19:08:34.684Z,2.00
2023-05-07T19:11:03.100Z,1.77
2023-05-07T19:13:31.125Z,1.97
2023-05-07T19:15:59.105Z,1.63
2023-05-07T19:18:27.062Z,2.00
2023-05-07T19:20:56.353Z,1.77
2023-05-07T19:23:24.422Z,1.67
2023-05-07T19:25:52.396Z,1.97
2023-05-07T19:28:21.002Z,1.67
2023-05-07T19:30:49.816Z,1.87
2023-05-07T19:33:17.759Z,1.90
2023-05-07T19:35:45.884Z,1.80
2023-05-07T19:38:15.172Z,2.07
2023-05-07T19:40:43.132Z,2.10
2023-05-07T19:43:11.012Z,2.33
2023-05-07T19:45:42.745Z,2.50
2023-05-07T19:48:11.442Z,2.27
2023-05-07T19:50:39.356Z,2.13
2023-05-07T19:53:07.438Z,2.23
2023-05-07T19:55:37.073Z,2.33
2023-05-07T19:58:06.049Z,2.33
2023-05-07T20:00:33.928Z,2.70
2023-05-07T20:03:02.040Z,2.70
2023-05-07T20:05:30.148Z,2.87
2023-05-07T20:07:58.428Z,2.70
2023-05-07T20:10:26.355Z,2.63
2023-05-07T20:12:55.642Z,2.50
2023-05-07T20:15:23.865Z,2.53
2023-05-07T20:17:51.784Z,2.40
2023-05-07T20:20:19.902Z,2.70
2023-05-07T20:22:47.854Z,2.90
2023-05-07T20:25:15.839Z,2.43
2023-05-07T20:27:43.727Z,2.47
2023-05-07T20:30:14.552Z,2.90
2023-05-07T20:32:43.415Z,2.80
2023-05-07T20:35:11.662Z,2.37
2023-05-07T20:37:40.333Z,2.90
2023-05-07T20:40:09.438Z,2.97
2023-05-07T20:42:37.402Z,2.67
2023-05-07T20:45:06.253Z,2.70
2023-05-07T20:47:35.649Z,2.87
2023-05-07T20:50:03.746Z,2.67
2023-05-07T20:52:31.553Z,2.43
2023-05-07T20:54:59.532Z,2.70
2023-05-07T20:57:27.444Z,2.43
2023-05-07T20:59:55.430Z,2.43
2023-05-07T21:02:25.975Z,2.13
2023-05-07T21:04:55.283Z,2.43
2023-05-07T21:07:23.192Z,2.37
2023-05-07T21:09:51.077Z,2.30
2023-05-07T21:12:18.966Z,2.47
2023-05-07T21:14:46.865Z,2.37
2023-05-07T21:17:14.744Z,2.40
2023-05-07T21:19:43.208Z,2.27
2023-05-07T21:22:12.515Z,2.47
2023-05-07T21:24:41.220Z,2.80
2023-05-07T21:27:09.316Z,2.13
2023-05-07T21:29:37.209Z,2.57
2023-05-07T21:32:05.660Z,2.17
2023-05-07T21:34:33.694Z,2.33
2023-05-07T21:37:01.601Z,2.60
2023-05-07T21:39:30.930Z,2.40
2023-05-07T21:41:58.797Z,2.47
2023-05-07T21:44:29.301Z,2.50
2023-05-07T21:46:57.134Z,2.53
2023-05-07T21:49:24.980Z,2.77
2023-05-07T21:51:52.972Z,2.70
2023-05-07T21:54:21.251Z,3.00
2023-05-07T21:56:50.467Z,2.67
2023-05-07T21:59:18.426Z,2.83
2023-05-07T22:01:46.361Z,3.67
2023-05-07T22:04:14.225Z,3.77
2023-05-07T22:06:42.101Z,3.40
2023-05-07T22:09:10.646Z,3.60
2023-05-07T22:11:38.620Z,3.30
2023-05-07T22:14:07.854Z,3.67
2023-05-07T22:16:35.901Z,4.07
2023-05-07T22:19:03.959Z,4.60
2023-05-07T22:21:32.051Z,5.17
2023-05-07T22:23:59.990Z,4.90
2023-05-07T22:26:27.935Z,4.87
2023-05-07T22:28:55.819Z,5.53
2023-05-07T22:31:25.709Z,4.87
2023-05-07T22:33:53.715Z,4.80
2023-05-07T22:36:21.650Z,5.33
2023-05-07T22:38:49.678Z,5.10
2023-05-07T22:41:17.615Z,4.97
2023-05-07T22:43:45.560Z,5.17
2023-05-07T22:46:13.448Z,5.00
2023-05-07T22:48:42.745Z,4.97
2023-05-07T22:51:13.856Z,4.60
2023-05-07T22:53:41.693Z,4.60
2023-05-07T22:56:10.126Z,4.80
2023-05-07T22:58:37.953Z,4.23
2023-05-07T23:01:12.413Z,4.07
2023-05-07T23:03:41.734Z,4.23
2023-05-07T23:06:10.014Z,3.93
2023-05-07T23:08:37.973Z,3.90
2023-05-07T23:11:06.247Z,3.90
2023-05-07T23:13:34.275Z,4.20
2023-05-07T23:16:02.143Z,3.53
2023-05-07T23:18:30.265Z,3.70
2023-05-07T23:20:59.498Z,3.87
2023-05-07T23:23:33.455Z,3.90
2023-05-07T23:26:01.461Z,3.10
2023-05-07T23:28:29.433Z,3.20
2023-05-07T23:30:57.313Z,3.20
2023-05-07T23:33:25.145Z,3.40
2023-05-07T23:36:01.070Z,2.50
2023-05-07T23:38:29.014Z,3.10
2023-05-07T23:40:56.962Z,2.77
2023-05-07T23:43:24.959Z,3.10
2023-05-07T23:45:53.063Z,2.63
2023-05-07T23:48:21.001Z,3.07
2023-05-07T23:50:48.869Z,3.00
2023-05-07T23:53:18.118Z,2.63
2023-05-07T23:55:46.052Z,2.80
2023-05-07T23:58:14.013Z,2.93
